sensor_id;sensor_type;location;lat;lon;timestamp;P1;P2;P0
81640;PMS5003;74020;50.722;-1.944;2023-11-21T00:00:53;4;3;
81640;PMS5003;74020;50.722;-1.944;2023-11-21T00:03:19;1;1;
81640;PMS5003;74020;50.722;-1.944;2023-11-21T00:05:44;1;1;
81640;PMS5003;74020;50.722;-1.944;2023-11-21T00:08:09;1;1;
81640;PMS5003;74020;50.722;-1.944;2023-11-21T00:10:35;1;1;
81640;PMS5003;74020;50.722;-1.944;2023-11-21T00:13:00;1;1;
81640;PMS5003;74020;50.722;-1.944;2023-11-21T00:15:26;1;1;
81640;PMS5003;74020;50.722;-1.944;2023-11-21T00:17:51;2;2;
81640;PMS5003;74020;50.722;-1.944;2023-11-21T00:20:16;1;1;
81640;PMS5003;74020;50.722;-1.944;2023-11-21T00:22:42;1;1;
81640;PMS5003;74020;50.722;-1.944;2023-11-21T00:25:07;1;1;
81640;PMS5003;74020;50.722;-1.944;2023-11-21T00:27:33;1;1;
81640;PMS5003;74020;50.722;-1.944;2023-11-21T00:29:58;0;0;
81640;PMS5003;74020;50.722;-1.944;2023-11-21T00:32:23;1;1;
81640;PMS5003;74020;50.722;-1.944;2023-11-21T00:34:48;1;1;
81640;PMS5003;74020;50.722;-1.944;2023-11-21T00:37:14;1;1;
81640;PMS5003;74020;50.722;-1.944;2023-11-21T00:39:39;2;2;
81640;PMS5003;74020;50.722;-1.944;2023-11-21T00:42:05;1;1;
81640;PMS5003;74020;50.722;-1.944;2023-11-21T00:44:30;1;1;
81640;PMS5003;74020;50.722;-1.944;2023-11-21T00:46:55;2;2;
81640;PMS5003;74020;50.722;-1.944;2023-11-21T00:49:21;1;1;
81640;PMS5003;74020;50.722;-1.944;2023-11-21T00:51:46;2;2;
81640;PMS5003;74020;50.722;-1.944;2023-11-21T00:54:11;1;1;
81640;PMS5003;74020;50.722;-1.944;2023-11-21T00:56:37;1;1;
81640;PMS5003;74020;50.722;-1.944;2023-11-21T00:59:02;2;2;
81640;PMS5003;74020;50.722;-1.944;2023-11-21T01:01:28;2;2;
81640;PMS5003;74020;50.722;-1.944;2023-11-21T01:03:53;1;1;
81640;PMS5003;74020;50.722;-1.944;2023-11-21T01:06:18;2;2;
81640;PMS5003;74020;50.722;-1.944;2023-11-21T01:08:44;3;3;
81640;PMS5003;74020;50.722;-1.944;2023-11-21T01:11:09;2;2;
81640;PMS5003;74020;50.722;-1.944;2023-11-21T01:13:35;1;1;
81640;PMS5003;74020;50.722;-1.944;2023-11-21T01:16:00;2;2;
81640;PMS5003;74020;50.722;-1.944;2023-11-21T01:18:25;1;0;
81640;PMS5003;74020;50.722;-1.944;2023-11-21T01:20:51;0;0;
81640;PMS5003;74020;50.722;-1.944;2023-11-21T01:23:16;2;2;
81640;PMS5003;74020;50.722;-1.944;2023-11-21T01:25:42;2;2;
81640;PMS5003;74020;50.722;-1.944;2023-11-21T01:28:07;2;1;
81640;PMS5003;74020;50.722;-1.944;2023-11-21T01:30:32;0;0;
81640;PMS5003;74020;50.722;-1.944;2023-11-21T01:32:58;2;2;
81640;PMS5003;74020;50.722;-1.944;2023-11-21T01:35:23;3;2;
81640;PMS5003;74020;50.722;-1.944;2023-11-21T01:37:49;1;1;
81640;PMS5003;74020;50.722;-1.944;2023-11-21T01:40:14;1;1;
81640;PMS5003;74020;50.722;-1.944;2023-11-21T01:42:39;1;1;
81640;PMS5003;74020;50.722;-1.944;2023-11-21T01:45:05;2;2;
81640;PMS5003;74020;50.722;-1.944;2023-11-21T01:47:30;2;2;
81640;PMS5003;74020;50.722;-1.944;2023-11-21T01:49:55;1;1;
81640;PMS5003;74020;50.722;-1.944;2023-11-21T01:52:21;1;1;
81640;PMS5003;74020;50.722;-1.944;2023-11-21T01:54:46;1;1;
81640;PMS5003;74020;50.722;-1.944;2023-11-21T01:57:11;1;1;
81640;PMS5003;74020;50.722;-1.944;2023-11-21T01:59:37;1;1;
81640;PMS5003;74020;50.722;-1.944;2023-11-21T02:02:02;1;1;
81640;PMS5003;74020;50.722;-1.944;2023-11-21T02:04:28;2;2;
81640;PMS5003;74020;50.722;-1.944;2023-11-21T02:06:53;2;1;
81640;PMS5003;74020;50.722;-1.944;2023-11-21T02:09:23;1;1;
81640;PMS5003;74020;50.722;-1.944;2023-11-21T02:11:44;1;1;
81640;PMS5003;74020;50.722;-1.944;2023-11-21T02:14:09;1;1;
81640;PMS5003;74020;50.722;-1.944;2023-11-21T02:16:35;2;1;
81640;PMS5003;74020;50.722;-1.944;2023-11-21T02:19:00;1;1;
81640;PMS5003;74020;50.722;-1.944;2023-11-21T02:21:25;1;1;
81640;PMS5003;74020;50.722;-1.944;2023-11-21T02:23:50;2;2;
81640;PMS5003;74020;50.722;-1.944;2023-11-21T02:26:16;1;1;
81640;PMS5003;74020;50.722;-1.944;2023-11-21T02:28:41;0;0;
81640;PMS5003;74020;50.722;-1.944;2023-11-21T02:31:06;1;1;
81640;PMS5003;74020;50.722;-1.944;2023-11-21T02:33:31;1;1;
81640;PMS5003;74020;50.722;-1.944;2023-11-21T02:35:57;1;1;
81640;PMS5003;74020;50.722;-1.944;2023-11-21T02:38:22;1;1;
81640;PMS5003;74020;50.722;-1.944;2023-11-21T02:40:48;1;1;
81640;PMS5003;74020;50.722;-1.944;2023-11-21T02:43:13;1;1;
81640;PMS5003;74020;50.722;-1.944;2023-11-21T02:45:38;1;0;
81640;PMS5003;74020;50.722;-1.944;2023-11-21T02:48:04;1;1;
81640;PMS5003;74020;50.722;-1.944;2023-11-21T02:50:29;2;2;
81640;PMS5003;74020;50.722;-1.944;2023-11-21T02:52:55;1;1;
81640;PMS5003;74020;50.722;-1.944;2023-11-21T02:55:20;2;2;
81640;PMS5003;74020;50.722;-1.944;2023-11-21T02:57:45;2;2;
81640;PMS5003;74020;50.722;-1.944;2023-11-21T03:00:11;1;1;
81640;PMS5003;74020;50.722;-1.944;2023-11-21T03:02:36;1;1;
81640;PMS5003;74020;50.722;-1.944;2023-11-21T03:05:02;1;1;
81640;PMS5003;74020;50.722;-1.944;2023-11-21T03:07:27;2;1;
81640;PMS5003;74020;50.722;-1.944;2023-11-21T03:09:52;1;1;
81640;PMS5003;74020;50.722;-1.944;2023-11-21T03:12:18;3;3;
81640;PMS5003;74020;50.722;-1.944;2023-11-21T03:14:43;2;2;
81640;PMS5003;74020;50.722;-1.944;2023-11-21T03:17:08;1;1;
81640;PMS5003;74020;50.722;-1.944;2023-11-21T03:19:34;1;1;
81640;PMS5003;74020;50.722;-1.944;2023-11-21T03:21:59;2;2;
81640;PMS5003;74020;50.722;-1.944;2023-11-21T03:24:24;3;2;
81640;PMS5003;74020;50.722;-1.944;2023-11-21T03:26:50;1;1;
81640;PMS5003;74020;50.722;-1.944;2023-11-21T03:29:15;1;1;
81640;PMS5003;74020;50.722;-1.944;2023-11-21T03:31:40;2;2;
81640;PMS5003;74020;50.722;-1.944;2023-11-21T03:34:06;1;1;
81640;PMS5003;74020;50.722;-1.944;2023-11-21T03:36:31;3;3;
81640;PMS5003;74020;50.722;-1.944;2023-11-21T03:38:57;2;2;
81640;PMS5003;74020;50.722;-1.944;2023-11-21T03:41:22;1;1;
81640;PMS5003;74020;50.722;-1.944;2023-11-21T03:43:47;2;2;
81640;PMS5003;74020;50.722;-1.944;2023-11-21T03:46:13;1;1;
81640;PMS5003;74020;50.722;-1.944;2023-11-21T03:48:38;1;1;
81640;PMS5003;74020;50.722;-1.944;2023-11-21T03:51:04;2;2;
81640;PMS5003;74020;50.722;-1.944;2023-11-21T03:53:29;2;2;
81640;PMS5003;74020;50.722;-1.944;2023-11-21T03:55:54;1;1;
81640;PMS5003;74020;50.722;-1.944;2023-11-21T03:58:19;1;1;
81640;PMS5003;74020;50.722;-1.944;2023-11-21T04:00:46;3;3;
81640;PMS5003;74020;50.722;-1.944;2023-11-21T04:03:10;2;2;
81640;PMS5003;74020;50.722;-1.944;2023-11-21T04:05:36;3;1;
81640;PMS5003;74020;50.722;-1.944;2023-11-21T04:08:01;2;2;
81640;PMS5003;74020;50.722;-1.944;2023-11-21T04:10:26;2;2;
81640;PMS5003;74020;50.722;-1.944;2023-11-21T04:12:52;1;1;
81640;PMS5003;74020;50.722;-1.944;2023-11-21T04:15:17;2;2;
81640;PMS5003;74020;50.722;-1.944;2023-11-21T04:17:42;1;1;
81640;PMS5003;74020;50.722;-1.944;2023-11-21T04:20:08;1;1;
81640;PMS5003;74020;50.722;-1.944;2023-11-21T04:22:33;2;2;
81640;PMS5003;74020;50.722;-1.944;2023-11-21T04:24:59;1;1;
81640;PMS5003;74020;50.722;-1.944;2023-11-21T04:27:24;2;2;
81640;PMS5003;74020;50.722;-1.944;2023-11-21T04:29:49;3;2;
81640;PMS5003;74020;50.722;-1.944;2023-11-21T04:32:15;2;2;
81640;PMS5003;74020;50.722;-1.944;2023-11-21T04:34:40;2;2;
81640;PMS5003;74020;50.722;-1.944;2023-11-21T04:37:05;4;3;
81640;PMS5003;74020;50.722;-1.944;2023-11-21T04:39:31;2;2;
81640;PMS5003;74020;50.722;-1.944;2023-11-21T04:41:56;3;3;
81640;PMS5003;74020;50.722;-1.944;2023-11-21T04:44:22;4;4;
81640;PMS5003;74020;50.722;-1.944;2023-11-21T04:46:47;3;3;
81640;PMS5003;74020;50.722;-1.944;2023-11-21T04:49:12;4;3;
81640;PMS5003;74020;50.722;-1.944;2023-11-21T04:51:38;4;4;
81640;PMS5003;74020;50.722;-1.944;2023-11-21T04:54:03;5;5;
81640;PMS5003;74020;50.722;-1.944;2023-11-21T04:56:28;3;3;
81640;PMS5003;74020;50.722;-1.944;2023-11-21T04:58:54;2;2;
81640;PMS5003;74020;50.722;-1.944;2023-11-21T05:01:19;3;3;
81640;PMS5003;74020;50.722;-1.944;2023-11-21T05:03:44;4;3;
81640;PMS5003;74020;50.722;-1.944;2023-11-21T05:06:10;4;4;
81640;PMS5003;74020;50.722;-1.944;2023-11-21T05:08:35;6;5;
81640;PMS5003;74020;50.722;-1.944;2023-11-21T05:11:00;3;3;
81640;PMS5003;74020;50.722;-1.944;2023-11-21T05:13:26;5;4;
81640;PMS5003;74020;50.722;-1.944;2023-11-21T05:15:51;6;5;
81640;PMS5003;74020;50.722;-1.944;2023-11-21T05:18:17;6;6;
81640;PMS5003;74020;50.722;-1.944;2023-11-21T05:20:42;5;5;
81640;PMS5003;74020;50.722;-1.944;2023-11-21T05:23:07;5;5;
81640;PMS5003;74020;50.722;-1.944;2023-11-21T05:25:33;6;6;
81640;PMS5003;74020;50.722;-1.944;2023-11-21T05:27:58;7;7;
81640;PMS5003;74020;50.722;-1.944;2023-11-21T05:30:23;6;6;
81640;PMS5003;74020;50.722;-1.944;2023-11-21T05:32:49;6;6;
81640;PMS5003;74020;50.722;-1.944;2023-11-21T05:35:14;8;8;
81640;PMS5003;74020;50.722;-1.944;2023-11-21T05:37:39;10;8;
81640;PMS5003;74020;50.722;-1.944;2023-11-21T05:40:05;6;6;
81640;PMS5003;74020;50.722;-1.944;2023-11-21T05:42:30;9;9;
81640;PMS5003;74020;50.722;-1.944;2023-11-21T05:44:55;11;11;
81640;PMS5003;74020;50.722;-1.944;2023-11-21T05:47:21;8;8;
81640;PMS5003;74020;50.722;-1.944;2023-11-21T05:49:46;8;8;
81640;PMS5003;74020;50.722;-1.944;2023-11-21T05:52:11;7;7;
81640;PMS5003;74020;50.722;-1.944;2023-11-21T05:54:37;7;7;
81640;PMS5003;74020;50.722;-1.944;2023-11-21T05:57:02;7;7;
81640;PMS5003;74020;50.722;-1.944;2023-11-21T05:59:28;7;7;
81640;PMS5003;74020;50.722;-1.944;2023-11-21T06:01:53;7;7;
81640;PMS5003;74020;50.722;-1.944;2023-11-21T06:04:18;8;8;
81640;PMS5003;74020;50.722;-1.944;2023-11-21T06:06:44;11;8;
81640;PMS5003;74020;50.722;-1.944;2023-11-21T06:09:09;11;9;
81640;PMS5003;74020;50.722;-1.944;2023-11-21T06:11:34;9;8;
81640;PMS5003;74020;50.722;-1.944;2023-11-21T06:14:00;9;9;
81640;PMS5003;74020;50.722;-1.944;2023-11-21T06:16:25;6;6;
81640;PMS5003;74020;50.722;-1.944;2023-11-21T06:18:50;5;5;
81640;PMS5003;74020;50.722;-1.944;2023-11-21T06:21:16;5;5;
81640;PMS5003;74020;50.722;-1.944;2023-11-21T06:23:41;10;8;
81640;PMS5003;74020;50.722;-1.944;2023-11-21T06:26:06;6;5;
81640;PMS5003;74020;50.722;-1.944;2023-11-21T06:28:31;5;5;
81640;PMS5003;74020;50.722;-1.944;2023-11-21T06:30:57;10;8;
81640;PMS5003;74020;50.722;-1.944;2023-11-21T06:33:22;6;6;
81640;PMS5003;74020;50.722;-1.944;2023-11-21T06:35:47;11;11;
81640;PMS5003;74020;50.722;-1.944;2023-11-21T06:38:13;8;7;
81640;PMS5003;74020;50.722;-1.944;2023-11-21T06:40:38;12;12;
81640;PMS5003;74020;50.722;-1.944;2023-11-21T06:43:03;8;7;
81640;PMS5003;74020;50.722;-1.944;2023-11-21T06:45:29;6;6;
81640;PMS5003;74020;50.722;-1.944;2023-11-21T06:47:54;7;7;
81640;PMS5003;74020;50.722;-1.944;2023-11-21T06:50:19;6;5;
81640;PMS5003;74020;50.722;-1.944;2023-11-21T06:52:45;6;6;
81640;PMS5003;74020;50.722;-1.944;2023-11-21T06:55:10;6;5;
81640;PMS5003;74020;50.722;-1.944;2023-11-21T06:57:36;7;6;
81640;PMS5003;74020;50.722;-1.944;2023-11-21T07:00:02;6;6;
81640;PMS5003;74020;50.722;-1.944;2023-11-21T07:02:26;5;5;
81640;PMS5003;74020;50.722;-1.944;2023-11-21T07:04:52;6;5;
81640;PMS5003;74020;50.722;-1.944;2023-11-21T07:07:18;6;6;
81640;PMS5003;74020;50.722;-1.944;2023-11-21T07:09:42;3;3;
81640;PMS5003;74020;50.722;-1.944;2023-11-21T07:12:08;5;4;
81640;PMS5003;74020;50.722;-1.944;2023-11-21T07:14:33;4;4;
81640;PMS5003;74020;50.722;-1.944;2023-11-21T07:16:59;4;4;
81640;PMS5003;74020;50.722;-1.944;2023-11-21T07:19:24;4;4;
81640;PMS5003;74020;50.722;-1.944;2023-11-21T07:21:50;6;5;
81640;PMS5003;74020;50.722;-1.944;2023-11-21T07:24:15;4;4;
81640;PMS5003;74020;50.722;-1.944;2023-11-21T07:26:40;4;4;
81640;PMS5003;74020;50.722;-1.944;2023-11-21T07:29:06;3;3;
81640;PMS5003;74020;50.722;-1.944;2023-11-21T07:31:31;3;3;
81640;PMS5003;74020;50.722;-1.944;2023-11-21T07:33:57;4;4;
81640;PMS5003;74020;50.722;-1.944;2023-11-21T07:36:22;3;3;
81640;PMS5003;74020;50.722;-1.944;2023-11-21T07:38:47;4;4;
81640;PMS5003;74020;50.722;-1.944;2023-11-21T07:41:13;2;2;
81640;PMS5003;74020;50.722;-1.944;2023-11-21T07:43:38;6;6;
81640;PMS5003;74020;50.722;-1.944;2023-11-21T07:46:04;4;4;
81640;PMS5003;74020;50.722;-1.944;2023-11-21T07:48:29;3;3;
81640;PMS5003;74020;50.722;-1.944;2023-11-21T07:50:54;3;3;
81640;PMS5003;74020;50.722;-1.944;2023-11-21T07:53:20;3;2;
81640;PMS5003;74020;50.722;-1.944;2023-11-21T07:55:45;3;3;
81640;PMS5003;74020;50.722;-1.944;2023-11-21T07:58:11;2;2;
81640;PMS5003;74020;50.722;-1.944;2023-11-21T08:00:36;3;3;
81640;PMS5003;74020;50.722;-1.944;2023-11-21T08:03:02;4;4;
81640;PMS5003;74020;50.722;-1.944;2023-11-21T08:05:27;2;2;
81640;PMS5003;74020;50.722;-1.944;2023-11-21T08:07:52;3;2;
81640;PMS5003;74020;50.722;-1.944;2023-11-21T08:10:18;3;3;
81640;PMS5003;74020;50.722;-1.944;2023-11-21T08:12:43;2;2;
81640;PMS5003;74020;50.722;-1.944;2023-11-21T08:15:09;4;4;
81640;PMS5003;74020;50.722;-1.944;2023-11-21T08:17:34;2;2;
81640;PMS5003;74020;50.722;-1.944;2023-11-21T08:19:59;3;3;
81640;PMS5003;74020;50.722;-1.944;2023-11-21T08:22:25;2;2;
81640;PMS5003;74020;50.722;-1.944;2023-11-21T08:24:50;3;3;
81640;PMS5003;74020;50.722;-1.944;2023-11-21T08:27:16;2;2;
81640;PMS5003;74020;50.722;-1.944;2023-11-21T08:29:41;2;2;
81640;PMS5003;74020;50.722;-1.944;2023-11-21T08:32:06;1;1;
81640;PMS5003;74020;50.722;-1.944;2023-11-21T08:34:32;2;2;
81640;PMS5003;74020;50.722;-1.944;2023-11-21T08:36:57;2;2;
81640;PMS5003;74020;50.722;-1.944;2023-11-21T08:39:22;2;2;
81640;PMS5003;74020;50.722;-1.944;2023-11-21T08:41:48;2;2;
81640;PMS5003;74020;50.722;-1.944;2023-11-21T08:44:13;2;2;
81640;PMS5003;74020;50.722;-1.944;2023-11-21T08:46:39;1;1;
81640;PMS5003;74020;50.722;-1.944;2023-11-21T08:49:04;3;3;
81640;PMS5003;74020;50.722;-1.944;2023-11-21T08:51:29;2;2;
81640;PMS5003;74020;50.722;-1.944;2023-11-21T08:53:55;3;2;
81640;PMS5003;74020;50.722;-1.944;2023-11-21T08:56:20;1;1;
81640;PMS5003;74020;50.722;-1.944;2023-11-21T08:58:46;2;2;
81640;PMS5003;74020;50.722;-1.944;2023-11-21T09:01:11;3;3;
81640;PMS5003;74020;50.722;-1.944;2023-11-21T09:03:36;2;2;
81640;PMS5003;74020;50.722;-1.944;2023-11-21T09:06:02;3;3;
81640;PMS5003;74020;50.722;-1.944;2023-11-21T09:08:27;2;2;
81640;PMS5003;74020;50.722;-1.944;2023-11-21T09:10:53;2;1;
81640;PMS5003;74020;50.722;-1.944;2023-11-21T09:13:18;2;2;
81640;PMS5003;74020;50.722;-1.944;2023-11-21T09:15:43;1;1;
81640;PMS5003;74020;50.722;-1.944;2023-11-21T09:18:09;1;1;
81640;PMS5003;74020;50.722;-1.944;2023-11-21T09:20:34;1;1;
81640;PMS5003;74020;50.722;-1.944;2023-11-21T09:22:59;1;1;
81640;PMS5003;74020;50.722;-1.944;2023-11-21T09:25:25;1;1;
81640;PMS5003;74020;50.722;-1.944;2023-11-21T09:27:50;1;1;
81640;PMS5003;74020;50.722;-1.944;2023-11-21T09:30:16;2;2;
81640;PMS5003;74020;50.722;-1.944;2023-11-21T09:32:41;1;1;
81640;PMS5003;74020;50.722;-1.944;2023-11-21T09:35:07;2;2;
81640;PMS5003;74020;50.722;-1.944;2023-11-21T09:37:32;2;2;
81640;PMS5003;74020;50.722;-1.944;2023-11-21T09:39:57;2;2;
81640;PMS5003;74020;50.722;-1.944;2023-11-21T09:42:23;1;1;
81640;PMS5003;74020;50.722;-1.944;2023-11-21T09:44:50;3;3;
81640;PMS5003;74020;50.722;-1.944;2023-11-21T09:47:14;1;1;
81640;PMS5003;74020;50.722;-1.944;2023-11-21T09:49:39;1;1;
81640;PMS5003;74020;50.722;-1.944;2023-11-21T09:52:04;2;2;
81640;PMS5003;74020;50.722;-1.944;2023-11-21T09:54:30;2;2;
81640;PMS5003;74020;50.722;-1.944;2023-11-21T09:56:55;1;1;
81640;PMS5003;74020;50.722;-1.944;2023-11-21T09:59:20;1;1;
81640;PMS5003;74020;50.722;-1.944;2023-11-21T10:01:45;2;2;
81640;PMS5003;74020;50.722;-1.944;2023-11-21T10:04:11;2;2;
81640;PMS5003;74020;50.722;-1.944;2023-11-21T10:06:36;2;2;
81640;PMS5003;74020;50.722;-1.944;2023-11-21T10:09:02;1;1;
81640;PMS5003;74020;50.722;-1.944;2023-11-21T10:11:27;1;1;
81640;PMS5003;74020;50.722;-1.944;2023-11-21T10:13:52;1;1;
81640;PMS5003;74020;50.722;-1.944;2023-11-21T10:16:18;2;2;
81640;PMS5003;74020;50.722;-1.944;2023-11-21T10:18:43;1;1;
81640;PMS5003;74020;50.722;-1.944;2023-11-21T10:21:08;2;2;
81640;PMS5003;74020;50.722;-1.944;2023-11-21T10:23:34;1;1;
81640;PMS5003;74020;50.722;-1.944;2023-11-21T10:25:59;1;1;
81640;PMS5003;74020;50.722;-1.944;2023-11-21T10:28:25;1;1;
81640;PMS5003;74020;50.722;-1.944;2023-11-21T10:30:50;2;2;
81640;PMS5003;74020;50.722;-1.944;2023-11-21T10:33:15;2;2;
81640;PMS5003;74020;50.722;-1.944;2023-11-21T10:35:44;1;1;
81640;PMS5003;74020;50.722;-1.944;2023-11-21T10:38:06;2;1;
81640;PMS5003;74020;50.722;-1.944;2023-11-21T10:40:31;2;2;
81640;PMS5003;74020;50.722;-1.944;2023-11-21T10:43:01;2;2;
81640;PMS5003;74020;50.722;-1.944;2023-11-21T10:45:22;2;1;
81640;PMS5003;74020;50.722;-1.944;2023-11-21T10:47:47;1;1;
81640;PMS5003;74020;50.722;-1.944;2023-11-21T10:50:12;1;1;
81640;PMS5003;74020;50.722;-1.944;2023-11-21T10:52:39;1;1;
81640;PMS5003;74020;50.722;-1.944;2023-11-21T10:55:05;1;1;
81640;PMS5003;74020;50.722;-1.944;2023-11-21T10:57:29;0;0;
81640;PMS5003;74020;50.722;-1.944;2023-11-21T10:59:54;1;1;
81640;PMS5003;74020;50.722;-1.944;2023-11-21T11:02:22;2;2;
81640;PMS5003;74020;50.722;-1.944;2023-11-21T11:04:45;1;1;
81640;PMS5003;74020;50.722;-1.944;2023-11-21T11:07:10;1;1;
81640;PMS5003;74020;50.722;-1.944;2023-11-21T11:09:35;4;2;
81640;PMS5003;74020;50.722;-1.944;2023-11-21T11:12:01;1;1;
81640;PMS5003;74020;50.722;-1.944;2023-11-21T11:14:26;3;2;
81640;PMS5003;74020;50.722;-1.944;2023-11-21T11:16:53;1;1;
81640;PMS5003;74020;50.722;-1.944;2023-11-21T11:19:17;1;1;
81640;PMS5003;74020;50.722;-1.944;2023-11-21T11:21:45;2;2;
81640;PMS5003;74020;50.722;-1.944;2023-11-21T11:24:13;2;2;
81640;PMS5003;74020;50.722;-1.944;2023-11-21T11:26:36;1;1;
81640;PMS5003;74020;50.722;-1.944;2023-11-21T11:29:01;2;2;
81640;PMS5003;74020;50.722;-1.944;2023-11-21T11:31:26;1;1;
81640;PMS5003;74020;50.722;-1.944;2023-11-21T11:33:51;3;3;
81640;PMS5003;74020;50.722;-1.944;2023-11-21T11:36:17;1;1;
81640;PMS5003;74020;50.722;-1.944;2023-11-21T11:38:44;1;1;
81640;PMS5003;74020;50.722;-1.944;2023-11-21T11:41:06;1;1;
81640;PMS5003;74020;50.722;-1.944;2023-11-21T11:43:31;2;2;
81640;PMS5003;74020;50.722;-1.944;2023-11-21T11:45:56;1;1;
81640;PMS5003;74020;50.722;-1.944;2023-11-21T11:48:22;1;1;
81640;PMS5003;74020;50.722;-1.944;2023-11-21T11:53:12;3;3;
81640;PMS5003;74020;50.722;-1.944;2023-11-21T11:55:37;2;2;
81640;PMS5003;74020;50.722;-1.944;2023-11-21T11:58:04;4;4;
81640;PMS5003;74020;50.722;-1.944;2023-11-21T12:00:33;2;2;
81640;PMS5003;74020;50.722;-1.944;2023-11-21T12:02:54;3;3;
81640;PMS5003;74020;50.722;-1.944;2023-11-21T12:05:19;3;3;
81640;PMS5003;74020;50.722;-1.944;2023-11-21T12:07:45;4;4;
81640;PMS5003;74020;50.722;-1.944;2023-11-21T12:10:11;3;3;
81640;PMS5003;74020;50.722;-1.944;2023-11-21T12:12:35;3;3;
81640;PMS5003;74020;50.722;-1.944;2023-11-21T12:15:00;3;3;
81640;PMS5003;74020;50.722;-1.944;2023-11-21T12:17:26;4;4;
81640;PMS5003;74020;50.722;-1.944;2023-11-21T12:19:51;3;3;
81640;PMS5003;74020;50.722;-1.944;2023-11-21T12:22:17;3;3;
81640;PMS5003;74020;50.722;-1.944;2023-11-21T12:24:42;2;2;
81640;PMS5003;74020;50.722;-1.944;2023-11-21T12:27:07;4;4;
81640;PMS5003;74020;50.722;-1.944;2023-11-21T12:29:33;3;3;
81640;PMS5003;74020;50.722;-1.944;2023-11-21T12:31:58;5;5;
81640;PMS5003;74020;50.722;-1.944;2023-11-21T12:34:23;3;3;
81640;PMS5003;74020;50.722;-1.944;2023-11-21T12:36:49;3;3;
81640;PMS5003;74020;50.722;-1.944;2023-11-21T12:39:14;5;5;
81640;PMS5003;74020;50.722;-1.944;2023-11-21T12:41:39;6;5;
81640;PMS5003;74020;50.722;-1.944;2023-11-21T12:44:09;4;4;
81640;PMS5003;74020;50.722;-1.944;2023-11-21T12:46:30;4;4;
81640;PMS5003;74020;50.722;-1.944;2023-11-21T12:48:56;3;3;
81640;PMS5003;74020;50.722;-1.944;2023-11-21T12:51:21;6;6;
81640;PMS5003;74020;50.722;-1.944;2023-11-21T12:53:46;4;4;
81640;PMS5003;74020;50.722;-1.944;2023-11-21T12:56:12;5;4;
81640;PMS5003;74020;50.722;-1.944;2023-11-21T12:58:37;4;4;
81640;PMS5003;74020;50.722;-1.944;2023-11-21T13:01:02;3;3;
81640;PMS5003;74020;50.722;-1.944;2023-11-21T13:03:28;6;6;
81640;PMS5003;74020;50.722;-1.944;2023-11-21T13:05:53;5;5;
81640;PMS5003;74020;50.722;-1.944;2023-11-21T13:08:19;4;4;
81640;PMS5003;74020;50.722;-1.944;2023-11-21T13:10:44;5;5;
81640;PMS5003;74020;50.722;-1.944;2023-11-21T13:13:10;6;6;
81640;PMS5003;74020;50.722;-1.944;2023-11-21T13:15:36;4;4;
81640;PMS5003;74020;50.722;-1.944;2023-11-21T13:18:00;4;4;
81640;PMS5003;74020;50.722;-1.944;2023-11-21T13:20:25;3;3;
81640;PMS5003;74020;50.722;-1.944;2023-11-21T13:22:52;5;4;
81640;PMS5003;74020;50.722;-1.944;2023-11-21T13:25:16;4;4;
81640;PMS5003;74020;50.722;-1.944;2023-11-21T13:27:41;3;3;
81640;PMS5003;74020;50.722;-1.944;2023-11-21T13:30:07;3;3;
81640;PMS5003;74020;50.722;-1.944;2023-11-21T13:32:32;5;5;
81640;PMS5003;74020;50.722;-1.944;2023-11-21T13:34:58;5;5;
81640;PMS5003;74020;50.722;-1.944;2023-11-21T13:37:23;4;4;
81640;PMS5003;74020;50.722;-1.944;2023-11-21T13:39:48;4;4;
81640;PMS5003;74020;50.722;-1.944;2023-11-21T13:42:14;3;3;
81640;PMS5003;74020;50.722;-1.944;2023-11-21T13:44:39;4;4;
81640;PMS5003;74020;50.722;-1.944;2023-11-21T13:47:04;3;3;
81640;PMS5003;74020;50.722;-1.944;2023-11-21T13:49:30;4;4;
81640;PMS5003;74020;50.722;-1.944;2023-11-21T13:51:55;4;4;
81640;PMS5003;74020;50.722;-1.944;2023-11-21T13:54:20;5;5;
81640;PMS5003;74020;50.722;-1.944;2023-11-21T13:56:46;3;3;
81640;PMS5003;74020;50.722;-1.944;2023-11-21T13:59:11;2;2;
81640;PMS5003;74020;50.722;-1.944;2023-11-21T14:01:39;4;3;
81640;PMS5003;74020;50.722;-1.944;2023-11-21T14:04:02;2;2;
81640;PMS5003;74020;50.722;-1.944;2023-11-21T14:06:27;3;3;
81640;PMS5003;74020;50.722;-1.944;2023-11-21T14:08:53;2;2;
81640;PMS5003;74020;50.722;-1.944;2023-11-21T14:11:18;3;3;
81640;PMS5003;74020;50.722;-1.944;2023-11-21T14:13:43;3;3;
81640;PMS5003;74020;50.722;-1.944;2023-11-21T14:16:09;3;3;
81640;PMS5003;74020;50.722;-1.944;2023-11-21T14:18:34;2;2;
81640;PMS5003;74020;50.722;-1.944;2023-11-21T14:20:59;3;2;
81640;PMS5003;74020;50.722;-1.944;2023-11-21T14:23:25;2;2;
81640;PMS5003;74020;50.722;-1.944;2023-11-21T14:25:50;3;3;
81640;PMS5003;74020;50.722;-1.944;2023-11-21T14:28:16;2;2;
81640;PMS5003;74020;50.722;-1.944;2023-11-21T14:30:41;2;2;
81640;PMS5003;74020;50.722;-1.944;2023-11-21T14:33:06;1;1;
81640;PMS5003;74020;50.722;-1.944;2023-11-21T14:35:32;4;3;
81640;PMS5003;74020;50.722;-1.944;2023-11-21T14:37:57;2;2;
81640;PMS5003;74020;50.722;-1.944;2023-11-21T14:40:22;3;3;
81640;PMS5003;74020;50.722;-1.944;2023-11-21T14:42:48;2;2;
81640;PMS5003;74020;50.722;-1.944;2023-11-21T14:45:13;2;2;
81640;PMS5003;74020;50.722;-1.944;2023-11-21T14:47:38;1;1;
81640;PMS5003;74020;50.722;-1.944;2023-11-21T14:50:04;2;2;
81640;PMS5003;74020;50.722;-1.944;2023-11-21T14:52:29;1;1;
81640;PMS5003;74020;50.722;-1.944;2023-11-21T14:54:54;0;0;
81640;PMS5003;74020;50.722;-1.944;2023-11-21T14:57:20;1;1;
81640;PMS5003;74020;50.722;-1.944;2023-11-21T14:59:46;1;1;
81640;PMS5003;74020;50.722;-1.944;2023-11-21T15:02:11;1;1;
81640;PMS5003;74020;50.722;-1.944;2023-11-21T15:04:36;1;1;
81640;PMS5003;74020;50.722;-1.944;2023-11-21T15:07:01;2;1;
81640;PMS5003;74020;50.722;-1.944;2023-11-21T15:09:27;1;1;
81640;PMS5003;74020;50.722;-1.944;2023-11-21T15:11:52;3;3;
81640;PMS5003;74020;50.722;-1.944;2023-11-21T15:14:17;3;3;
81640;PMS5003;74020;50.722;-1.944;2023-11-21T15:16:43;2;2;
81640;PMS5003;74020;50.722;-1.944;2023-11-21T15:19:08;3;2;
81640;PMS5003;74020;50.722;-1.944;2023-11-21T15:21:33;2;2;
81640;PMS5003;74020;50.722;-1.944;2023-11-21T15:23:59;1;1;
81640;PMS5003;74020;50.722;-1.944;2023-11-21T15:26:24;1;1;
81640;PMS5003;74020;50.722;-1.944;2023-11-21T15:28:49;1;1;
81640;PMS5003;74020;50.722;-1.944;2023-11-21T15:31:15;2;2;
81640;PMS5003;74020;50.722;-1.944;2023-11-21T15:33:40;1;1;
81640;PMS5003;74020;50.722;-1.944;2023-11-21T15:36:06;2;1;
81640;PMS5003;74020;50.722;-1.944;2023-11-21T15:38:31;3;2;
81640;PMS5003;74020;50.722;-1.944;2023-11-21T15:40:56;2;2;
81640;PMS5003;74020;50.722;-1.944;2023-11-21T15:43:21;1;1;
81640;PMS5003;74020;50.722;-1.944;2023-11-21T15:45:47;3;1;
81640;PMS5003;74020;50.722;-1.944;2023-11-21T15:48:12;2;2;
81640;PMS5003;74020;50.722;-1.944;2023-11-21T15:50:38;2;2;
81640;PMS5003;74020;50.722;-1.944;2023-11-21T15:53:03;2;2;
81640;PMS5003;74020;50.722;-1.944;2023-11-21T15:55:28;3;3;
81640;PMS5003;74020;50.722;-1.944;2023-11-21T15:57:54;1;1;
81640;PMS5003;74020;50.722;-1.944;2023-11-21T16:00:19;3;3;
81640;PMS5003;74020;50.722;-1.944;2023-11-21T16:02:44;3;3;
81640;PMS5003;74020;50.722;-1.944;2023-11-21T16:05:10;2;2;
81640;PMS5003;74020;50.722;-1.944;2023-11-21T16:07:35;5;5;
81640;PMS5003;74020;50.722;-1.944;2023-11-21T16:10:01;3;3;
81640;PMS5003;74020;50.722;-1.944;2023-11-21T16:12:26;3;3;
81640;PMS5003;74020;50.722;-1.944;2023-11-21T16:14:51;4;4;
81640;PMS5003;74020;50.722;-1.944;2023-11-21T16:17:17;4;4;
81640;PMS5003;74020;50.722;-1.944;2023-11-21T16:19:42;5;4;
81640;PMS5003;74020;50.722;-1.944;2023-11-21T16:22:07;5;4;